createdAt,value
2023-01-30T00:00:13.141Z,29.50
2023-01-30T00:01:13.179Z,31.33
2023-01-30T00:02:13.318Z,30.63
2023-01-30T00:03:13.332Z,31.95
2023-01-30T00:04:16.086Z,32.57
2023-01-30T00:05:13.360Z,32.88
2023-01-30T00:06:13.422Z,32.36
2023-01-30T00:07:13.348Z,28.81
2023-01-30T00:08:13.356Z,29.72
2023-01-30T00:09:13.348Z,29.51
2023-01-30T00:10:13.320Z,29.38
2023-01-30T00:11:13.322Z,28.35
2023-01-30T00:12:13.324Z,29.52
2023-01-30T00:13:13.302Z,31.60
2023-01-30T00:14:13.315Z,31.58
2023-01-30T00:15:13.326Z,30.45
2023-01-30T00:16:13.366Z,29.48
2023-01-30T00:17:13.299Z,31.08
2023-01-30T00:18:13.274Z,30.92
2023-01-30T00:19:13.244Z,31.30
2023-01-30T00:21:13.259Z,29.94
2023-01-30T00:22:13.266Z,28.48
2023-01-30T00:23:13.237Z,31.64
2023-01-30T00:24:13.305Z,30.46
2023-01-30T00:25:13.409Z,32.26
2023-01-30T00:26:13.304Z,32.72
2023-01-30T00:27:13.216Z,28.37
2023-01-30T00:28:13.200Z,30.08
2023-01-30T00:29:13.202Z,32.89
2023-01-30T00:30:13.213Z,29.41
2023-01-30T00:31:13.254Z,32.17
2023-01-30T00:32:13.223Z,32.83
2023-01-30T00:33:13.291Z,31.84
2023-01-30T00:34:13.336Z,32.13
2023-01-30T00:35:13.390Z,33.32
2023-01-30T00:36:13.438Z,34.44
2023-01-30T00:37:13.512Z,32.09
2023-01-30T00:38:13.503Z,32.55
2023-01-30T00:39:13.546Z,35.83
2023-01-30T00:40:13.611Z,34.42
2023-01-30T00:41:13.689Z,34.87
2023-01-30T00:42:13.729Z,33.86
2023-01-30T00:43:13.823Z,37.69
2023-01-30T00:44:13.764Z,37.76
2023-01-30T00:45:13.790Z,36.82
2023-01-30T00:46:13.900Z,34.98
2023-01-30T00:47:13.868Z,37.34
2023-01-30T00:48:13.946Z,38.34
2023-01-30T00:49:13.983Z,39.51
2023-01-30T00:50:13.977Z,39.83
2023-01-30T00:51:14.019Z,41.56
2023-01-30T00:52:14.053Z,39.76
2023-01-30T00:53:14.060Z,40.95
2023-01-30T00:54:14.088Z,41.61
2023-01-30T00:55:14.084Z,41.13
2023-01-30T00:56:14.169Z,41.96
2023-01-30T00:57:14.175Z,43.53
2023-01-30T00:58:14.171Z,43.88
2023-01-30T00:59:14.205Z,41.90
2023-01-30T01:00:14.208Z,41.86
2023-01-30T01:01:14.200Z,44.91
2023-01-30T01:02:14.253Z,42.48
2023-01-30T01:03:14.249Z,42.80
2023-01-30T01:04:14.249Z,44.15
2023-01-30T01:05:14.252Z,42.82
2023-01-30T01:06:14.269Z,43.44
2023-01-30T01:07:14.283Z,46.09
2023-01-30T01:08:14.269Z,45.90
2023-01-30T01:09:14.282Z,46.44
2023-01-30T01:10:14.297Z,46.54
2023-01-30T01:11:14.295Z,46.82
2023-01-30T01:12:14.292Z,43.41
2023-01-30T01:13:14.277Z,47.33
2023-01-30T01:14:14.257Z,47.63
2023-01-30T01:15:14.307Z,45.49
2023-01-30T01:16:14.305Z,47.40
2023-01-30T01:17:14.263Z,48.73
2023-01-30T01:18:14.251Z,47.55
2023-01-30T01:19:14.288Z,46.94
2023-01-30T01:20:14.234Z,47.08
2023-01-30T01:21:14.271Z,45.15
2023-01-30T01:22:14.292Z,45.28
2023-01-30T01:23:14.268Z,48.45
2023-01-30T01:24:14.263Z,44.94
2023-01-30T01:25:14.272Z,48.52
2023-01-30T01:26:14.244Z,48.23
2023-01-30T01:27:14.235Z,45.57
2023-01-30T01:28:14.248Z,47.66
2023-01-30T01:29:14.283Z,45.70
2023-01-30T01:30:14.241Z,47.07
2023-01-30T01:31:14.333Z,47.24
2023-01-30T01:32:14.316Z,47.19
2023-01-30T01:33:14.349Z,49.30
2023-01-30T01:34:14.415Z,45.78
2023-01-30T01:35:14.416Z,47.31
2023-01-30T01:36:29.203Z,49.44
2023-01-30T01:37:15.454Z,49.53
2023-01-30T01:38:14.452Z,49.51
2023-01-30T01:39:14.422Z,50.10
2023-01-30T01:40:14.461Z,51.04
2023-01-30T01:41:14.427Z,47.69
2023-01-30T01:42:14.440Z,45.79
2023-01-30T01:43:14.404Z,49.20
2023-01-30T04:07:21.755Z,38.99
2023-01-30T04:08:21.805Z,39.78
2023-01-30T04:09:21.863Z,39.81
2023-01-30T04:10:21.908Z,38.57
2023-01-30T04:11:21.924Z,38.00
2023-01-30T04:12:21.976Z,41.31
2023-01-30T04:13:22.000Z,39.19
2023-01-30T04:14:22.050Z,39.72
2023-01-30T04:15:22.082Z,39.53
2023-01-30T04:16:22.186Z,40.95
2023-01-30T04:17:22.177Z,39.78
2023-01-30T04:18:22.205Z,38.89
2023-01-30T04:19:22.253Z,39.76
2023-01-30T04:20:22.271Z,40.10
2023-01-30T04:21:22.310Z,39.30
2023-01-30T04:22:22.350Z,38.21
2023-01-30T04:23:22.356Z,38.02
2023-01-30T04:24:22.431Z,39.94
2023-01-30T04:25:22.452Z,38.58
2023-01-30T04:26:22.500Z,38.87
2023-01-30T04:27:22.520Z,39.03
2023-01-30T04:28:22.567Z,38.46
2023-01-30T04:29:22.584Z,36.60
2023-01-30T04:30:22.672Z,36.20
2023-01-30T04:31:22.728Z,38.99
2023-01-30T04:32:22.717Z,36.31
2023-01-30T04:33:22.745Z,37.41
2023-01-30T04:34:22.811Z,36.28
2023-01-30T04:35:22.837Z,36.14
2023-01-30T04:36:22.899Z,36.86
2023-01-30T04:37:22.930Z,36.02
2023-01-30T04:38:22.955Z,34.26
2023-01-30T04:39:22.996Z,38.20
2023-01-30T04:40:23.047Z,36.22
2023-01-30T04:41:23.087Z,37.04
2023-01-30T04:42:23.177Z,36.48
2023-01-30T04:43:23.235Z,35.34
2023-01-30T04:44:23.326Z,33.95
2023-01-30T04:45:23.289Z,36.01
2023-01-30T04:46:23.364Z,32.35
2023-01-30T04:47:23.420Z,34.20
2023-01-30T04:48:23.419Z,34.19
2023-01-30T04:49:23.477Z,31.86
2023-01-30T04:50:23.529Z,35.13
2023-01-30T04:51:23.543Z,35.59
2023-01-30T04:52:23.634Z,30.37
2023-01-30T04:53:23.676Z,34.57
2023-01-30T04:54:23.716Z,29.84
2023-01-30T04:55:23.827Z,31.39
2023-01-30T04:56:23.818Z,30.02
2023-01-30T04:57:23.894Z,29.78
2023-01-30T04:58:23.964Z,30.30
2023-01-30T04:59:24.001Z,32.83
2023-01-30T05:00:24.079Z,29.41
2023-01-30T05:01:24.104Z,27.48
2023-01-30T05:02:24.211Z,30.18
2023-01-30T05:03:24.194Z,28.48
2023-01-30T05:04:24.235Z,25.91
2023-01-30T05:05:24.320Z,30.26
2023-01-30T05:06:24.404Z,26.96
2023-01-30T05:07:24.415Z,27.09
2023-01-30T05:08:24.479Z,28.02
2023-01-30T05:09:24.542Z,25.74
2023-01-30T05:10:24.601Z,28.80
2023-01-30T05:11:24.648Z,27.77
2023-01-30T05:12:24.711Z,26.52
2023-01-30T05:13:24.717Z,27.77
2023-01-30T05:14:24.762Z,26.56
2023-01-30T05:15:24.805Z,27.69
2023-01-30T05:16:24.897Z,27.03
2023-01-30T05:17:24.995Z,26.45
2023-01-30T05:18:24.958Z,27.98
2023-01-30T05:19:25.010Z,27.25
2023-01-30T05:20:25.078Z,26.24
2023-01-30T05:21:25.130Z,28.27
2023-01-30T05:22:25.163Z,27.75
2023-01-30T05:23:25.245Z,27.78
2023-01-30T05:24:25.273Z,26.33
2023-01-30T05:25:25.297Z,28.48
2023-01-30T05:26:25.416Z,28.46
2023-01-30T05:27:25.438Z,27.52
2023-01-30T05:28:25.480Z,27.07
2023-01-30T05:29:25.522Z,27.55
2023-01-30T05:30:25.634Z,31.01
2023-01-30T05:31:25.714Z,30.55
2023-01-30T05:32:25.726Z,30.22
2023-01-30T05:33:25.727Z,31.00
2023-01-30T05:34:25.773Z,26.41
2023-01-30T05:35:25.829Z,28.35
2023-01-30T05:36:25.910Z,24.92
2023-01-30T05:37:25.976Z,28.77
2023-01-30T05:38:26.004Z,27.81
2023-01-30T05:39:26.055Z,29.25
2023-01-30T05:40:26.124Z,29.06
2023-01-30T05:41:26.193Z,27.88
2023-01-30T05:42:26.241Z,30.26
2023-01-30T05:43:26.296Z,27.50
2023-01-30T05:44:26.322Z,31.27
2023-01-30T05:45:26.418Z,28.91
2023-01-30T05:46:26.508Z,26.93
2023-01-30T05:47:26.566Z,27.63
2023-01-30T05:48:26.578Z,28.82
2023-01-30T05:49:26.656Z,25.00
2023-01-30T05:50:26.737Z,27.40
2023-01-30T05:51:26.766Z,29.15
2023-01-30T05:52:26.838Z,28.55
2023-01-30T05:53:26.887Z,29.28
2023-01-30T05:54:26.994Z,26.98
2023-01-30T05:55:27.002Z,25.10
2023-01-30T05:56:27.159Z,26.45
2023-01-30T05:57:27.189Z,26.26
2023-01-30T05:58:27.229Z,26.30
2023-01-30T05:59:27.214Z,28.47
2023-01-30T06:00:27.311Z,26.49
2023-01-30T06:01:34.347Z,26.46
2023-01-30T06:02:27.352Z,26.75
2023-01-30T06:03:27.362Z,26.91
2023-01-30T06:04:27.310Z,26.51
2023-01-30T06:05:27.365Z,25.84
2023-01-30T06:06:27.284Z,24.08
2023-01-30T06:07:27.334Z,25.94
2023-01-30T06:08:27.314Z,29.32
2023-01-30T06:09:27.312Z,28.39
2023-01-30T06:10:27.271Z,27.69
2023-01-30T06:11:27.293Z,27.44
2023-01-30T06:12:27.312Z,27.95
2023-01-30T06:13:27.297Z,27.66
2023-01-30T06:14:27.269Z,29.68
2023-01-30T06:15:27.255Z,27.44
2023-01-30T06:16:27.366Z,27.36
2023-01-30T06:17:29.106Z,25.44
2023-01-30T06:18:27.271Z,30.25
2023-01-30T06:19:27.248Z,27.58
2023-01-30T06:20:27.208Z,29.44
2023-01-30T06:21:27.217Z,27.66
2023-01-30T06:22:27.228Z,25.48
2023-01-30T06:23:27.229Z,29.67
2023-01-30T06:26:27.202Z,28.96
2023-01-30T06:30:27.204Z,28.81
2023-01-30T06:31:27.191Z,26.94
2023-01-30T06:32:27.205Z,25.67
2023-01-30T06:33:27.169Z,27.38
2023-01-30T06:34:27.161Z,26.45
2023-01-30T06:35:27.122Z,34.29
2023-01-30T06:36:27.126Z,28.85
2023-01-30T06:37:27.139Z,35.83
2023-01-30T06:38:27.374Z,43.09
2023-01-30T06:39:27.120Z,52.07
2023-01-30T06:40:27.108Z,60.27
2023-01-30T06:41:27.141Z,66.22
2023-01-30T06:42:28.095Z,63.88
2023-01-30T06:43:27.374Z,57.88
2023-01-30T06:44:27.077Z,53.22
2023-01-30T06:45:27.189Z,55.48
2023-01-30T06:46:34.179Z,51.12
2023-01-30T06:47:27.054Z,63.95
2023-01-30T06:48:27.099Z,63.70
2023-01-30T06:49:27.045Z,57.81
2023-01-30T06:50:27.069Z,54.70
2023-01-30T06:51:27.045Z,58.23
2023-01-30T06:52:27.036Z,58.19
2023-01-30T06:53:27.025Z,56.37
2023-01-30T06:54:26.987Z,55.65
2023-01-30T06:56:27.012Z,63.69
2023-01-30T06:57:27.019Z,65.30
2023-01-30T06:58:27.028Z,66.37
2023-01-30T06:59:26.978Z,70.70
2023-01-30T07:00:26.975Z,73.58
2023-01-30T07:01:28.947Z,75.20
2023-01-30T07:02:26.953Z,76.05
2023-01-30T07:03:26.955Z,82.25
2023-01-30T07:04:26.965Z,80.17
2023-01-30T07:05:26.945Z,85.24
2023-01-30T07:06:26.921Z,91.74
2023-01-30T07:07:26.937Z,97.20
2023-01-30T07:08:27.445Z,93.36
2023-01-30T07:09:27.000Z,101.77
2023-01-30T07:10:27.074Z,104.82
2023-01-30T07:11:27.124Z,101.69
2023-01-30T07:12:27.120Z,106.20
2023-01-30T07:13:27.218Z,107.17
2023-01-30T07:14:27.206Z,108.97
2023-01-30T07:15:27.245Z,114.58
2023-01-30T07:16:27.287Z,115.01
2023-01-30T07:17:27.292Z,112.59
2023-01-30T07:18:27.304Z,120.06
2023-01-30T07:19:27.310Z,118.58
2023-01-30T07:20:27.362Z,103.47
2023-01-30T07:21:27.365Z,99.94
2023-01-30T07:22:27.377Z,100.56
2023-01-30T07:23:27.370Z,102.48
2023-01-30T07:24:27.365Z,103.89
2023-01-30T07:25:27.395Z,103.73
2023-01-30T07:26:27.408Z,107.61
2023-01-30T07:27:27.443Z,107.49
2023-01-30T07:28:27.397Z,102.93
2023-01-30T07:29:27.451Z,107.57
2023-01-30T07:30:27.428Z,113.03
2023-01-30T07:31:27.414Z,108.59
2023-01-30T07:32:27.404Z,113.74
2023-01-30T09:58:31.714Z,28.93
2023-01-30T09:59:31.756Z,25.00
2023-01-30T10:00:31.795Z,25.61
2023-01-30T10:01:31.841Z,26.76
2023-01-30T10:02:31.806Z,27.40
2023-01-30T10:03:31.862Z,25.00
2023-01-30T10:04:32.465Z,32.03
2023-01-30T10:05:31.929Z,35.08
2023-01-30T10:06:31.952Z,39.47
2023-01-30T10:07:31.992Z,38.51
2023-01-30T10:08:31.955Z,64.81
2023-01-30T10:09:31.997Z,60.02
2023-01-30T10:10:32.041Z,56.42
2023-01-30T10:11:32.120Z,53.51
2023-01-30T10:12:32.256Z,41.55
2023-01-30T10:13:32.280Z,49.81
2023-01-30T10:14:32.218Z,51.91
2023-01-30T10:15:32.273Z,67.83
2023-01-30T10:16:32.331Z,76.33
2023-01-30T10:17:32.900Z,62.17
2023-01-30T10:18:32.433Z,68.96
2023-01-30T10:19:35.885Z,64.40
2023-01-30T10:20:32.534Z,68.95
2023-01-30T10:21:32.455Z,74.70
2023-01-30T10:22:32.458Z,76.39
2023-01-30T10:23:32.477Z,68.15
2023-01-30T10:24:32.443Z,75.68
2023-01-30T10:25:32.488Z,71.17
2023-01-30T10:26:32.487Z,66.92
2023-01-30T10:27:32.459Z,72.79
2023-01-30T10:28:32.515Z,58.22
2023-01-30T10:29:32.466Z,77.40
2023-01-30T10:30:32.408Z,71.82
2023-01-30T10:31:32.524Z,73.09
2023-01-30T10:32:32.439Z,74.97
2023-01-30T10:33:32.395Z,72.82
2023-01-30T10:34:32.373Z,71.36
2023-01-30T10:35:32.533Z,70.78
2023-01-30T10:36:32.362Z,71.09
2023-01-30T10:37:32.375Z,73.72
2023-01-30T10:38:32.363Z,71.59
2023-01-30T10:39:32.363Z,76.68
2023-01-30T10:40:32.339Z,78.57
2023-01-30T10:41:32.353Z,75.05
2023-01-30T10:42:32.583Z,77.16
2023-01-30T10:43:32.329Z,75.15
2023-01-30T10:44:33.014Z,78.94
2023-01-30T10:45:32.379Z,79.58
2023-01-30T10:46:32.338Z,78.86
2023-01-30T10:47:46.213Z,102.24
2023-01-30T10:48:43.194Z,90.86
2023-01-30T10:49:33.293Z,95.99
2023-01-30T10:50:32.273Z,86.75
2023-01-30T10:51:32.293Z,83.25
2023-01-30T10:52:32.259Z,88.01
2023-01-30T10:53:32.331Z,86.50
2023-01-30T10:54:32.275Z,90.25
2023-01-30T10:55:37.612Z,86.70
2023-01-30T10:56:33.243Z,86.81
2023-01-30T10:57:32.217Z,86.74
2023-01-30T10:58:32.237Z,86.63
2023-01-30T10:59:32.215Z,85.95
2023-01-30T11:00:32.211Z,86.09
2023-01-30T11:01:32.269Z,86.80
2023-01-30T11:02:32.284Z,88.57
2023-01-30T11:03:32.188Z,86.94
2023-01-30T11:04:32.253Z,85.74
2023-01-30T11:05:32.508Z,86.51
2023-01-30T11:06:32.172Z,86.45
2023-01-30T11:07:32.143Z,88.20
2023-01-30T11:08:33.084Z,85.90
2023-01-30T11:09:32.137Z,83.64
2023-01-30T11:10:33.454Z,85.17
2023-01-30T11:11:32.151Z,86.38
2023-01-30T11:12:32.166Z,86.58
2023-01-30T11:13:32.161Z,86.06
2023-01-30T11:14:32.140Z,85.63
2023-01-30T11:15:32.170Z,85.00
2023-01-30T11:16:32.114Z,84.49
2023-01-30T11:17:32.119Z,86.76
2023-01-30T11:19:33.145Z,88.80
2023-01-30T11:20:32.148Z,89.68
2023-01-30T11:21:43.488Z,89.57
2023-01-30T11:22:33.074Z,88.84
2023-01-30T11:23:32.049Z,89.00
2023-01-30T11:24:32.066Z,88.65
2023-01-30T11:26:45.625Z,89.03
2023-01-30T11:27:33.052Z,88.84
2023-01-30T11:28:32.007Z,89.38
2023-01-30T11:29:32.079Z,89.24
2023-01-30T11:30:32.079Z,88.72
2023-01-30T11:31:41.416Z,88.71
2023-01-30T11:32:33.011Z,88.82
2023-01-30T11:33:32.099Z,88.90
2023-01-30T11:34:32.091Z,88.10
2023-01-30T11:35:32.140Z,87.35
2023-01-30T11:36:32.223Z,87.03
2023-01-30T11:37:32.221Z,110.24
2023-01-30T11:38:32.248Z,94.32
2023-01-30T11:39:32.228Z,97.05
2023-01-30T11:41:32.283Z,90.15
2023-01-30T11:42:32.373Z,92.30
2023-01-30T11:43:32.368Z,88.76
2023-01-30T11:44:32.488Z,81.11
2023-01-30T11:45:32.604Z,75.09
2023-01-30T11:46:32.389Z,71.01
2023-01-30T11:47:32.414Z,75.02
2023-01-30T11:49:01.243Z,74.34
2023-01-30T11:49:47.427Z,74.76
2023-01-30T11:51:32.520Z,75.14
2023-01-30T11:52:32.424Z,74.19
2023-01-30T11:53:32.376Z,67.41
2023-01-30T11:54:32.383Z,67.42
2023-01-30T11:55:32.393Z,63.94
2023-01-30T11:56:32.335Z,61.92
2023-01-30T11:57:32.360Z,63.82
2023-01-30T11:58:32.372Z,65.91
2023-01-30T11:59:32.353Z,64.80
2023-01-30T12:00:32.390Z,56.58
2023-01-30T12:01:32.327Z,62.91
2023-01-30T12:02:32.391Z,64.74
2023-01-30T12:09:32.298Z,62.69
2023-01-30T12:15:32.217Z,62.38
2023-01-30T12:28:32.570Z,66.48
2023-01-30T12:32:32.747Z,65.94
2023-01-30T12:33:32.749Z,69.35
2023-01-30T12:49:33.267Z,81.07
2023-01-30T16:57:42.159Z,38.57
2023-01-30T16:59:42.168Z,39.44
2023-01-30T17:00:42.134Z,38.66
2023-01-30T17:01:42.246Z,38.28
2023-01-30T17:02:42.165Z,38.60
2023-01-30T17:03:42.184Z,39.63
2023-01-30T17:04:42.198Z,38.58
2023-01-30T17:05:42.216Z,38.15
2023-01-30T17:06:42.205Z,39.01
2023-01-30T17:07:42.214Z,38.03
2023-01-30T17:08:42.193Z,37.85
2023-01-30T17:09:42.233Z,37.02
2023-01-30T17:10:42.278Z,39.17
2023-01-30T17:11:42.267Z,37.53
2023-01-30T17:12:42.270Z,37.72
2023-01-30T17:13:42.279Z,38.49
2023-01-30T17:14:42.276Z,38.64
2023-01-30T17:15:42.298Z,35.17
2023-01-30T17:16:42.292Z,38.40
2023-01-30T17:17:42.315Z,38.24
2023-01-30T17:18:42.313Z,37.67
2023-01-30T17:19:42.320Z,38.24
2023-01-30T17:20:42.343Z,38.33
2023-01-30T17:21:42.341Z,37.34
2023-01-30T17:22:42.353Z,37.90
2023-01-30T17:23:42.346Z,36.60
2023-01-30T17:24:42.399Z,36.83
2023-01-30T17:25:42.385Z,39.06
2023-01-30T17:26:42.567Z,36.84
2023-01-30T17:27:42.408Z,36.50
2023-01-30T17:28:42.430Z,36.49
2023-01-30T17:29:43.513Z,36.76
2023-01-30T17:30:42.514Z,37.94
2023-01-30T17:31:42.562Z,38.67
2023-01-30T17:32:42.523Z,38.85
2023-01-30T17:33:42.526Z,38.43
2023-01-30T17:34:42.560Z,39.16
2023-01-30T17:35:42.570Z,37.12
2023-01-30T17:36:42.562Z,34.15
2023-01-30T17:37:43.904Z,36.15
2023-01-30T17:38:42.636Z,34.93
2023-01-30T17:39:42.669Z,36.72
2023-01-30T17:40:42.674Z,36.71
2023-01-30T17:41:42.677Z,34.60
2023-01-30T17:42:42.835Z,35.64
2023-01-30T17:43:42.741Z,35.14
2023-01-30T17:44:42.766Z,34.09
2023-01-30T17:45:42.804Z,35.02
2023-01-30T17:46:42.954Z,34.89
2023-01-30T17:47:42.844Z,34.75
2023-01-30T17:48:42.953Z,37.06
2023-01-30T17:49:42.926Z,35.18
2023-01-30T17:50:42.972Z,33.58
2023-01-30T17:51:43.024Z,34.15
2023-01-30T17:52:43.020Z,31.67
2023-01-30T17:53:43.068Z,32.16
2023-01-30T17:54:43.092Z,32.12
2023-01-30T17:55:43.122Z,32.89
2023-01-30T17:56:43.219Z,33.15
2023-01-30T17:57:43.193Z,33.51
2023-01-30T17:58:43.276Z,32.44
2023-01-30T17:59:43.242Z,31.26
2023-01-30T18:00:43.286Z,31.70
2023-01-30T18:01:43.376Z,33.20
2023-01-30T18:02:43.418Z,30.35
2023-01-30T18:03:44.894Z,31.65
2023-01-30T18:04:43.444Z,30.98
2023-01-30T18:05:43.473Z,30.45
2023-01-30T18:06:43.537Z,29.91
2023-01-30T18:07:43.587Z,30.36
2023-01-30T18:08:43.642Z,31.23
2023-01-30T18:09:43.623Z,28.30
2023-01-30T18:10:43.700Z,29.09
2023-01-30T18:11:43.748Z,27.70
2023-01-30T18:12:43.802Z,28.16
2023-01-30T18:13:43.810Z,28.69
2023-01-30T18:14:43.892Z,28.54
2023-01-30T18:15:43.948Z,28.89
2023-01-30T18:16:44.075Z,26.18
2023-01-30T18:17:46.115Z,26.40
2023-01-30T18:18:44.062Z,27.90
2023-01-30T18:19:44.012Z,27.11
2023-01-30T18:20:44.039Z,26.72
2023-01-30T18:21:44.020Z,25.94
2023-01-30T18:22:43.999Z,25.22
2023-01-30T18:23:44.022Z,26.94
2023-01-30T18:24:43.957Z,28.39
2023-01-30T18:25:44.011Z,29.21
2023-01-30T18:26:44.044Z,25.08
2023-01-30T18:27:44.075Z,27.69
2023-01-30T18:28:44.008Z,27.07
2023-01-30T18:29:43.945Z,27.20
2023-01-30T18:30:43.991Z,25.27
2023-01-30T18:31:44.041Z,26.75
2023-01-30T18:32:52.405Z,26.75
2023-01-30T18:33:44.943Z,26.97
2023-01-30T18:34:43.936Z,27.19
2023-01-30T18:35:43.876Z,26.93
2023-01-30T18:36:43.901Z,24.29
2023-01-30T18:37:43.889Z,24.43
2023-01-30T18:38:43.901Z,25.42
2023-01-30T18:39:43.886Z,27.88
2023-01-30T18:40:43.867Z,25.57
2023-01-30T18:41:43.898Z,28.78
2023-01-30T18:42:43.883Z,26.96
2023-01-30T18:43:43.853Z,26.30
2023-01-30T18:44:43.921Z,26.04
2023-01-30T18:45:43.949Z,27.67
2023-01-30T18:46:44.040Z,26.22
2023-01-30T18:47:44.078Z,27.19
2023-01-30T18:48:44.135Z,27.04
2023-01-30T18:49:44.165Z,28.11
2023-01-30T18:50:44.203Z,28.70
2023-01-30T18:51:44.254Z,28.42
2023-01-30T18:52:44.315Z,28.60
2023-01-30T18:53:44.361Z,29.56
2023-01-30T18:54:44.431Z,27.14
2023-01-30T18:55:44.456Z,26.73
2023-01-30T18:56:44.524Z,27.13
2023-01-30T18:57:44.552Z,27.95
2023-01-30T18:58:44.642Z,28.21
2023-01-30T18:59:44.686Z,31.14
2023-01-30T19:00:44.693Z,29.14
2023-01-30T19:01:44.766Z,26.89
2023-01-30T19:02:44.890Z,27.67
2023-01-30T19:03:44.899Z,27.69
2023-01-30T19:04:44.957Z,27.69
2023-01-30T19:05:45.018Z,26.36
2023-01-30T19:06:45.075Z,26.97
2023-01-30T19:07:45.108Z,27.33
2023-01-30T19:08:45.136Z,25.97
2023-01-30T19:09:45.229Z,27.42
2023-01-30T19:10:45.305Z,26.54
2023-01-30T19:11:45.334Z,27.91
2023-01-30T19:12:45.383Z,26.61
2023-01-30T19:13:45.451Z,25.52
2023-01-30T19:14:45.524Z,27.31
2023-01-30T19:15:45.634Z,28.65
2023-01-30T19:16:45.686Z,28.23
2023-01-30T19:17:45.728Z,26.25
2023-01-30T19:18:45.787Z,25.66
2023-01-30T19:19:45.843Z,26.24
2023-01-30T19:20:45.883Z,26.68
2023-01-30T19:21:45.958Z,28.27
2023-01-30T19:22:46.029Z,26.74
2023-01-30T19:23:46.079Z,27.97
2023-01-30T19:24:46.128Z,28.73
2023-01-30T19:25:46.196Z,30.08
2023-01-30T19:26:46.355Z,26.04
2023-01-30T19:27:46.344Z,28.03
2023-01-30T19:28:46.372Z,27.67
2023-01-30T19:29:46.420Z,28.05
2023-01-30T19:30:46.530Z,26.51
2023-01-30T19:31:46.632Z,28.29
2023-01-30T19:32:46.614Z,29.16
2023-01-30T19:33:46.648Z,29.78
2023-01-30T19:34:46.981Z,28.70
2023-01-30T19:35:46.757Z,27.80
2023-01-30T19:36:46.791Z,28.90
2023-01-30T19:37:46.816Z,28.98
2023-01-30T19:38:46.834Z,25.63
2023-01-30T19:39:46.910Z,27.59
2023-01-30T19:40:46.939Z,25.83
2023-01-30T19:41:46.977Z,28.54
2023-01-30T19:42:47.313Z,29.56
2023-01-30T19:43:47.134Z,28.68
2023-01-30T19:44:47.134Z,28.20
2023-01-30T19:45:47.170Z,27.10
2023-01-30T19:46:47.278Z,29.55
2023-01-30T19:47:47.254Z,28.84
2023-01-30T19:48:47.304Z,29.24
2023-01-30T19:49:47.331Z,25.12
2023-01-30T19:50:47.336Z,27.46
2023-01-30T19:51:47.336Z,27.89
2023-01-30T19:52:47.395Z,31.25
2023-01-30T19:53:47.389Z,29.66
2023-01-30T19:54:47.408Z,27.54
2023-01-30T19:55:47.447Z,26.51
